sensor_id;sensor_type;location;lat;lon;timestamp;P1;durP1;ratioP1;P2;durP2;ratioP2
7013;SDS011;3547;50.774;12.918;2022-07-29T00:02:11;5.18;;;3.28;;
7013;SDS011;3547;50.774;12.918;2022-07-29T00:04:40;6.80;;;3.25;;
7013;SDS011;3547;50.774;12.918;2022-07-29T00:07:09;4.00;;;3.20;;
7013;SDS011;3547;50.774;12.918;2022-07-29T00:09:35;3.38;;;2.85;;
7013;SDS011;3547;50.774;12.918;2022-07-29T00:12:02;4.00;;;3.20;;
7013;SDS011;3547;50.774;12.918;2022-07-29T00:14:29;3.85;;;3.17;;
7013;SDS011;3547;50.774;12.918;2022-07-29T00:16:55;9.23;;;3.13;;
7013;SDS011;3547;50.774;12.918;2022-07-29T00:19:22;5.78;;;2.80;;
7013;SDS011;3547;50.774;12.918;2022-07-29T00:21:48;4.47;;;2.92;;
7013;SDS011;3547;50.774;12.918;2022-07-29T00:24:15;5.25;;;3.15;;
7013;SDS011;3547;50.774;12.918;2022-07-29T00:26:41;4.15;;;2.65;;
7013;SDS011;3547;50.774;12.918;2022-07-29T00:29:07;3.28;;;2.65;;
7013;SDS011;3547;50.774;12.918;2022-07-29T00:31:34;3.97;;;2.67;;
7013;SDS011;3547;50.774;12.918;2022-07-29T00:34:00;3.75;;;2.40;;
7013;SDS011;3547;50.774;12.918;2022-07-29T00:36:31;4.18;;;2.60;;
7013;SDS011;3547;50.774;12.918;2022-07-29T00:38:58;3.95;;;2.45;;
7013;SDS011;3547;50.774;12.918;2022-07-29T00:41:26;4.97;;;2.78;;
7013;SDS011;3547;50.774;12.918;2022-07-29T00:43:52;5.05;;;2.42;;
7013;SDS011;3547;50.774;12.918;2022-07-29T00:46:19;4.65;;;2.92;;
7013;SDS011;3547;50.774;12.918;2022-07-29T00:48:45;4.22;;;2.63;;
7013;SDS011;3547;50.774;12.918;2022-07-29T00:51:11;5.40;;;2.80;;
7013;SDS011;3547;50.774;12.918;2022-07-29T00:53:38;2.95;;;2.45;;
7013;SDS011;3547;50.774;12.918;2022-07-29T00:56:04;3.25;;;2.45;;
7013;SDS011;3547;50.774;12.918;2022-07-29T01:01:54;3.45;;;2.35;;
7013;SDS011;3547;50.774;12.918;2022-07-29T01:04:21;3.33;;;2.50;;
7013;SDS011;3547;50.774;12.918;2022-07-29T01:06:48;3.42;;;2.95;;
7013;SDS011;3547;50.774;12.918;2022-07-29T01:09:14;2.92;;;2.20;;
7013;SDS011;3547;50.774;12.918;2022-07-29T01:11:43;3.47;;;2.25;;
7013;SDS011;3547;50.774;12.918;2022-07-29T01:14:10;3.55;;;2.00;;
7013;SDS011;3547;50.774;12.918;2022-07-29T01:16:58;3.35;;;2.53;;
7013;SDS011;3547;50.774;12.918;2022-07-29T01:22:37;5.20;;;2.60;;
7013;SDS011;3547;50.774;12.918;2022-07-29T01:28:01;3.10;;;2.47;;
7013;SDS011;3547;50.774;12.918;2022-07-29T01:30:57;6.47;;;2.50;;
7013;SDS011;3547;50.774;12.918;2022-07-29T01:33:26;3.33;;;2.80;;
7013;SDS011;3547;50.774;12.918;2022-07-29T01:36:20;3.92;;;2.60;;
7013;SDS011;3547;50.774;12.918;2022-07-29T01:38:57;2.67;;;2.08;;
7013;SDS011;3547;50.774;12.918;2022-07-29T01:42:12;5.05;;;2.30;;
7013;SDS011;3547;50.774;12.918;2022-07-29T01:44:57;4.22;;;2.13;;
7013;SDS011;3547;50.774;12.918;2022-07-29T01:47:26;2.55;;;1.73;;
7013;SDS011;3547;50.774;12.918;2022-07-29T01:50:03;3.35;;;2.03;;
7013;SDS011;3547;50.774;12.918;2022-07-29T01:52:36;2.88;;;1.98;;
7013;SDS011;3547;50.774;12.918;2022-07-29T01:55:09;1.83;;;1.63;;
7013;SDS011;3547;50.774;12.918;2022-07-29T01:57:40;6.03;;;2.13;;
7013;SDS011;3547;50.774;12.918;2022-07-29T02:00:09;5.63;;;1.95;;
7013;SDS011;3547;50.774;12.918;2022-07-29T02:02:37;4.10;;;2.75;;
7013;SDS011;3547;50.774;12.918;2022-07-29T02:05:06;3.15;;;2.28;;
7013;SDS011;3547;50.774;12.918;2022-07-29T02:07:35;3.10;;;2.45;;
7013;SDS011;3547;50.774;12.918;2022-07-29T02:10:03;2.25;;;1.90;;
7013;SDS011;3547;50.774;12.918;2022-07-29T02:12:32;2.97;;;2.10;;
7013;SDS011;3547;50.774;12.918;2022-07-29T02:15:02;13.82;;;2.35;;
7013;SDS011;3547;50.774;12.918;2022-07-29T02:17:33;2.88;;;2.47;;
7013;SDS011;3547;50.774;12.918;2022-07-29T02:20:06;3.28;;;2.60;;
7013;SDS011;3547;50.774;12.918;2022-07-29T02:22:35;3.45;;;2.40;;
7013;SDS011;3547;50.774;12.918;2022-07-29T02:25:03;4.20;;;2.03;;
7013;SDS011;3547;50.774;12.918;2022-07-29T02:27:32;8.30;;;2.38;;
7013;SDS011;3547;50.774;12.918;2022-07-29T02:30:00;4.20;;;2.28;;
7013;SDS011;3547;50.774;12.918;2022-07-29T02:32:29;4.68;;;2.50;;
7013;SDS011;3547;50.774;12.918;2022-07-29T02:34:57;3.80;;;2.25;;
7013;SDS011;3547;50.774;12.918;2022-07-29T02:40:48;4.45;;;1.75;;
7013;SDS011;3547;50.774;12.918;2022-07-29T02:43:16;2.35;;;1.80;;
7013;SDS011;3547;50.774;12.918;2022-07-29T02:45:44;4.55;;;2.03;;
7013;SDS011;3547;50.774;12.918;2022-07-29T02:48:13;3.38;;;1.95;;
7013;SDS011;3547;50.774;12.918;2022-07-29T02:50:48;3.13;;;2.10;;
7013;SDS011;3547;50.774;12.918;2022-07-29T02:53:24;4.72;;;1.92;;
7013;SDS011;3547;50.774;12.918;2022-07-29T02:55:56;2.90;;;1.92;;
7013;SDS011;3547;50.774;12.918;2022-07-29T02:58:33;2.83;;;2.03;;
7013;SDS011;3547;50.774;12.918;2022-07-29T03:01:04;3.83;;;2.20;;
7013;SDS011;3547;50.774;12.918;2022-07-29T03:03:40;3.30;;;1.80;;
7013;SDS011;3547;50.774;12.918;2022-07-29T03:06:11;3.70;;;2.28;;
7013;SDS011;3547;50.774;12.918;2022-07-29T03:08:40;4.20;;;2.70;;
7013;SDS011;3547;50.774;12.918;2022-07-29T03:11:07;3.97;;;2.25;;
7013;SDS011;3547;50.774;12.918;2022-07-29T03:13:34;7.15;;;1.95;;
7013;SDS011;3547;50.774;12.918;2022-07-29T03:16:01;4.13;;;2.17;;
7013;SDS011;3547;50.774;12.918;2022-07-29T03:18:28;1.80;;;1.63;;
7013;SDS011;3547;50.774;12.918;2022-07-29T03:20:54;3.17;;;1.95;;
7013;SDS011;3547;50.774;12.918;2022-07-29T03:23:21;2.22;;;1.90;;
7013;SDS011;3547;50.774;12.918;2022-07-29T03:25:49;4.82;;;1.95;;
7013;SDS011;3547;50.774;12.918;2022-07-29T03:28:18;3.80;;;2.10;;
7013;SDS011;3547;50.774;12.918;2022-07-29T03:30:45;3.47;;;1.88;;
7013;SDS011;3547;50.774;12.918;2022-07-29T03:33:11;4.13;;;2.03;;
7013;SDS011;3547;50.774;12.918;2022-07-29T03:35:37;2.92;;;2.03;;
7013;SDS011;3547;50.774;12.918;2022-07-29T03:38:04;1.50;;;1.40;;
7013;SDS011;3547;50.774;12.918;2022-07-29T03:40:53;3.28;;;2.10;;
7013;SDS011;3547;50.774;12.918;2022-07-29T03:43:24;3.67;;;1.90;;
7013;SDS011;3547;50.774;12.918;2022-07-29T03:45:53;2.45;;;1.88;;
7013;SDS011;3547;50.774;12.918;2022-07-29T03:48:23;2.72;;;1.85;;
7013;SDS011;3547;50.774;12.918;2022-07-29T03:50:52;2.65;;;1.70;;
7013;SDS011;3547;50.774;12.918;2022-07-29T03:53:19;2.55;;;1.80;;
7013;SDS011;3547;50.774;12.918;2022-07-29T03:55:46;3.08;;;2.10;;
7013;SDS011;3547;50.774;12.918;2022-07-29T03:58:17;7.15;;;2.25;;
7013;SDS011;3547;50.774;12.918;2022-07-29T04:00:44;2.17;;;1.98;;
7013;SDS011;3547;50.774;12.918;2022-07-29T04:03:12;1.73;;;1.63;;
7013;SDS011;3547;50.774;12.918;2022-07-29T04:05:38;2.75;;;2.10;;
7013;SDS011;3547;50.774;12.918;2022-07-29T04:08:05;1.95;;;1.77;;
7013;SDS011;3547;50.774;12.918;2022-07-29T04:10:31;2.40;;;1.95;;
7013;SDS011;3547;50.774;12.918;2022-07-29T04:13:04;3.03;;;1.85;;
7013;SDS011;3547;50.774;12.918;2022-07-29T04:16:17;2.17;;;1.90;;
7013;SDS011;3547;50.774;12.918;2022-07-29T04:18:48;3.17;;;1.95;;
7013;SDS011;3547;50.774;12.918;2022-07-29T04:21:15;5.15;;;2.47;;
7013;SDS011;3547;50.774;12.918;2022-07-29T04:23:54;4.93;;;2.20;;
7013;SDS011;3547;50.774;12.918;2022-07-29T04:26:23;2.90;;;1.80;;
7013;SDS011;3547;50.774;12.918;2022-07-29T04:29:00;1.95;;;1.75;;
7013;SDS011;3547;50.774;12.918;2022-07-29T04:41:50;7.53;;;2.00;;
7013;SDS011;3547;50.774;12.918;2022-07-29T04:49:30;2.40;;;1.98;;
7013;SDS011;3547;50.774;12.918;2022-07-29T04:59:34;5.53;;;2.15;;
7013;SDS011;3547;50.774;12.918;2022-07-29T05:02:00;1.90;;;1.73;;
7013;SDS011;3547;50.774;12.918;2022-07-29T05:04:32;4.72;;;2.03;;
7013;SDS011;3547;50.774;12.918;2022-07-29T05:07:04;1.73;;;1.60;;
7013;SDS011;3547;50.774;12.918;2022-07-29T05:09:56;3.08;;;2.22;;
7013;SDS011;3547;50.774;12.918;2022-07-29T05:12:38;2.65;;;2.05;;
7013;SDS011;3547;50.774;12.918;2022-07-29T05:15:04;4.18;;;1.90;;
7013;SDS011;3547;50.774;12.918;2022-07-29T05:17:32;3.15;;;1.80;;
7013;SDS011;3547;50.774;12.918;2022-07-29T05:19:59;2.28;;;1.92;;
7013;SDS011;3547;50.774;12.918;2022-07-29T05:22:49;4.55;;;1.90;;
7013;SDS011;3547;50.774;12.918;2022-07-29T05:25:20;2.95;;;1.95;;
7013;SDS011;3547;50.774;12.918;2022-07-29T05:27:47;2.78;;;1.92;;
7013;SDS011;3547;50.774;12.918;2022-07-29T05:30:16;2.55;;;2.20;;
7013;SDS011;3547;50.774;12.918;2022-07-29T05:32:43;3.17;;;1.73;;
7013;SDS011;3547;50.774;12.918;2022-07-29T05:35:13;4.18;;;1.70;;
7013;SDS011;3547;50.774;12.918;2022-07-29T05:37:44;3.25;;;1.70;;
7013;SDS011;3547;50.774;12.918;2022-07-29T05:40:22;3.60;;;1.83;;
7013;SDS011;3547;50.774;12.918;2022-07-29T05:42:56;2.83;;;1.80;;
7013;SDS011;3547;50.774;12.918;2022-07-29T05:48:15;4.45;;;2.08;;
7013;SDS011;3547;50.774;12.918;2022-07-29T05:50:42;2.13;;;1.92;;
7013;SDS011;3547;50.774;12.918;2022-07-29T05:53:18;3.47;;;1.75;;
7013;SDS011;3547;50.774;12.918;2022-07-29T05:55:44;9.52;;;2.22;;
7013;SDS011;3547;50.774;12.918;2022-07-29T05:58:13;6.57;;;1.88;;
7013;SDS011;3547;50.774;12.918;2022-07-29T06:00:41;2.10;;;1.90;;
7013;SDS011;3547;50.774;12.918;2022-07-29T06:03:08;4.45;;;2.03;;
7013;SDS011;3547;50.774;12.918;2022-07-29T06:05:39;3.88;;;2.10;;
7013;SDS011;3547;50.774;12.918;2022-07-29T06:08:08;3.00;;;1.90;;
7013;SDS011;3547;50.774;12.918;2022-07-29T06:10:49;6.05;;;2.15;;
7013;SDS011;3547;50.774;12.918;2022-07-29T06:13:23;3.22;;;2.05;;
7013;SDS011;3547;50.774;12.918;2022-07-29T06:15:58;5.68;;;1.80;;
7013;SDS011;3547;50.774;12.918;2022-07-29T06:18:28;4.78;;;1.83;;
7013;SDS011;3547;50.774;12.918;2022-07-29T06:20:59;2.20;;;1.80;;
7013;SDS011;3547;50.774;12.918;2022-07-29T06:23:29;3.20;;;2.05;;
7013;SDS011;3547;50.774;12.918;2022-07-29T06:26:02;2.08;;;1.88;;
7013;SDS011;3547;50.774;12.918;2022-07-29T06:28:32;3.50;;;2.05;;
7013;SDS011;3547;50.774;12.918;2022-07-29T06:34:32;4.07;;;2.05;;
7013;SDS011;3547;50.774;12.918;2022-07-29T06:42:32;2.10;;;1.90;;
7013;SDS011;3547;50.774;12.918;2022-07-29T06:45:29;2.10;;;1.90;;
7013;SDS011;3547;50.774;12.918;2022-07-29T06:48:08;3.60;;;2.47;;
7013;SDS011;3547;50.774;12.918;2022-07-29T06:50:35;3.15;;;1.80;;
7013;SDS011;3547;50.774;12.918;2022-07-29T06:53:02;2.25;;;2.05;;
7013;SDS011;3547;50.774;12.918;2022-07-29T06:55:32;4.35;;;2.28;;
7013;SDS011;3547;50.774;12.918;2022-07-29T06:58:02;4.22;;;1.98;;
7013;SDS011;3547;50.774;12.918;2022-07-29T07:00:36;3.22;;;2.05;;
7013;SDS011;3547;50.774;12.918;2022-07-29T07:03:11;3.45;;;2.33;;
7013;SDS011;3547;50.774;12.918;2022-07-29T07:05:38;2.17;;;2.05;;
7013;SDS011;3547;50.774;12.918;2022-07-29T07:08:05;7.47;;;2.30;;
7013;SDS011;3547;50.774;12.918;2022-07-29T07:10:32;4.03;;;2.17;;
7013;SDS011;3547;50.774;12.918;2022-07-29T07:12:59;3.10;;;2.33;;
7013;SDS011;3547;50.774;12.918;2022-07-29T07:15:27;3.17;;;2.10;;
7013;SDS011;3547;50.774;12.918;2022-07-29T07:17:54;3.05;;;2.13;;
7013;SDS011;3547;50.774;12.918;2022-07-29T07:20:20;3.15;;;2.13;;
7013;SDS011;3547;50.774;12.918;2022-07-29T07:22:50;5.43;;;2.25;;
7013;SDS011;3547;50.774;12.918;2022-07-29T07:25:20;3.08;;;1.95;;
7013;SDS011;3547;50.774;12.918;2022-07-29T07:27:47;4.32;;;2.08;;
7013;SDS011;3547;50.774;12.918;2022-07-29T07:30:13;4.70;;;1.95;;
7013;SDS011;3547;50.774;12.918;2022-07-29T07:32:51;2.20;;;2.00;;
7013;SDS011;3547;50.774;12.918;2022-07-29T07:35:22;3.47;;;2.03;;
7013;SDS011;3547;50.774;12.918;2022-07-29T07:37:48;4.22;;;2.22;;
7013;SDS011;3547;50.774;12.918;2022-07-29T07:48:05;2.17;;;1.80;;
7013;SDS011;3547;50.774;12.918;2022-07-29T07:50:31;5.18;;;1.65;;
7013;SDS011;3547;50.774;12.918;2022-07-29T07:53:01;2.83;;;2.08;;
7013;SDS011;3547;50.774;12.918;2022-07-29T07:55:27;2.50;;;2.30;;
7013;SDS011;3547;50.774;12.918;2022-07-29T07:57:54;3.20;;;2.20;;
7013;SDS011;3547;50.774;12.918;2022-07-29T08:00:21;3.47;;;1.90;;
7013;SDS011;3547;50.774;12.918;2022-07-29T08:02:48;3.25;;;2.03;;
7013;SDS011;3547;50.774;12.918;2022-07-29T08:13:10;3.88;;;2.30;;
7013;SDS011;3547;50.774;12.918;2022-07-29T08:21:39;2.63;;;2.40;;
7013;SDS011;3547;50.774;12.918;2022-07-29T08:37:50;3.53;;;2.20;;
7013;SDS011;3547;50.774;12.918;2022-07-29T08:41:04;3.00;;;2.33;;
7013;SDS011;3547;50.774;12.918;2022-07-29T08:54:03;4.05;;;2.72;;
7013;SDS011;3547;50.774;12.918;2022-07-29T10:28:16;4.65;;;2.13;;
7013;SDS011;3547;50.774;12.918;2022-07-29T11:08:34;3.92;;;2.20;;
7013;SDS011;3547;50.774;12.918;2022-07-29T11:42:41;3.33;;;2.58;;
7013;SDS011;3547;50.774;12.918;2022-07-29T11:59:07;2.65;;;2.45;;
7013;SDS011;3547;50.774;12.918;2022-07-29T12:01:36;3.33;;;2.35;;
7013;SDS011;3547;50.774;12.918;2022-07-29T12:28:38;2.75;;;2.53;;
7013;SDS011;3547;50.774;12.918;2022-07-29T12:47:50;3.22;;;2.50;;
7013;SDS011;3547;50.774;12.918;2022-07-29T12:59:12;2.70;;;2.50;;
7013;SDS011;3547;50.774;12.918;2022-07-29T13:18:26;3.22;;;2.55;;
7013;SDS011;3547;50.774;12.918;2022-07-29T13:38:16;3.35;;;2.92;;
7013;SDS011;3547;50.774;12.918;2022-07-29T13:40:42;4.40;;;2.85;;
7013;SDS011;3547;50.774;12.918;2022-07-29T13:43:24;2.42;;;2.22;;
7013;SDS011;3547;50.774;12.918;2022-07-29T13:45:51;3.20;;;2.72;;
7013;SDS011;3547;50.774;12.918;2022-07-29T13:50:56;4.18;;;2.17;;
7013;SDS011;3547;50.774;12.918;2022-07-29T13:53:27;2.55;;;2.35;;
7013;SDS011;3547;50.774;12.918;2022-07-29T13:55:58;5.82;;;2.53;;
7013;SDS011;3547;50.774;12.918;2022-07-29T14:01:48;2.42;;;2.22;;
7013;SDS011;3547;50.774;12.918;2022-07-29T14:04:20;2.72;;;2.40;;
7013;SDS011;3547;50.774;12.918;2022-07-29T14:39:40;2.40;;;2.20;;
7013;SDS011;3547;50.774;12.918;2022-07-29T14:42:10;4.25;;;2.30;;
7013;SDS011;3547;50.774;12.918;2022-07-29T14:44:38;3.10;;;2.50;;
7013;SDS011;3547;50.774;12.918;2022-07-29T14:47:27;2.75;;;2.55;;
7013;SDS011;3547;50.774;12.918;2022-07-29T14:49:56;2.83;;;2.63;;
7013;SDS011;3547;50.774;12.918;2022-07-29T14:52:22;3.92;;;2.53;;
7013;SDS011;3547;50.774;12.918;2022-07-29T14:54:49;3.35;;;2.30;;
7013;SDS011;3547;50.774;12.918;2022-07-29T14:57:15;2.25;;;2.05;;
7013;SDS011;3547;50.774;12.918;2022-07-29T14:59:51;3.22;;;2.55;;
7013;SDS011;3547;50.774;12.918;2022-07-29T15:02:18;4.80;;;3.05;;
7013;SDS011;3547;50.774;12.918;2022-07-29T15:04:44;5.40;;;2.80;;
7013;SDS011;3547;50.774;12.918;2022-07-29T15:10:38;3.00;;;2.42;;
7013;SDS011;3547;50.774;12.918;2022-07-29T15:13:07;3.28;;;2.78;;
7013;SDS011;3547;50.774;12.918;2022-07-29T15:15:33;3.95;;;2.92;;
7013;SDS011;3547;50.774;12.918;2022-07-29T15:18:03;4.65;;;3.10;;
7013;SDS011;3547;50.774;12.918;2022-07-29T15:20:32;5.38;;;3.10;;
7013;SDS011;3547;50.774;12.918;2022-07-29T15:23:00;2.88;;;2.67;;
7013;SDS011;3547;50.774;12.918;2022-07-29T15:25:35;3.00;;;2.70;;
7013;SDS011;3547;50.774;12.918;2022-07-29T15:31:18;3.25;;;2.60;;
7013;SDS011;3547;50.774;12.918;2022-07-29T15:33:45;3.10;;;2.75;;
7013;SDS011;3547;50.774;12.918;2022-07-29T15:36:11;2.58;;;2.38;;
7013;SDS011;3547;50.774;12.918;2022-07-29T15:38:38;2.90;;;2.60;;
7013;SDS011;3547;50.774;12.918;2022-07-29T15:41:06;3.63;;;2.63;;
7013;SDS011;3547;50.774;12.918;2022-07-29T15:43:32;5.35;;;2.50;;
7013;SDS011;3547;50.774;12.918;2022-07-29T15:49:22;2.95;;;2.50;;
7013;SDS011;3547;50.774;12.918;2022-07-29T15:51:56;3.33;;;2.60;;
7013;SDS011;3547;50.774;12.918;2022-07-29T15:54:29;2.30;;;2.10;;
7013;SDS011;3547;50.774;12.918;2022-07-29T15:56:57;4.20;;;2.55;;
7013;SDS011;3547;50.774;12.918;2022-07-29T15:59:24;4.00;;;2.45;;
7013;SDS011;3547;50.774;12.918;2022-07-29T16:01:53;3.15;;;2.47;;
7013;SDS011;3547;50.774;12.918;2022-07-29T16:04:20;2.40;;;2.20;;
7013;SDS011;3547;50.774;12.918;2022-07-29T16:10:09;4.13;;;2.70;;
7013;SDS011;3547;50.774;12.918;2022-07-29T16:12:56;2.53;;;2.33;;
7013;SDS011;3547;50.774;12.918;2022-07-29T16:15:25;2.90;;;2.35;;
7013;SDS011;3547;50.774;12.918;2022-07-29T16:17:56;2.58;;;2.38;;
7013;SDS011;3547;50.774;12.918;2022-07-29T16:20:23;4.03;;;1.90;;
7013;SDS011;3547;50.774;12.918;2022-07-29T16:22:54;2.95;;;2.30;;
7013;SDS011;3547;50.774;12.918;2022-07-29T16:25:24;5.50;;;2.58;;
7013;SDS011;3547;50.774;12.918;2022-07-29T16:27:58;2.30;;;2.10;;
7013;SDS011;3547;50.774;12.918;2022-07-29T16:30:28;2.20;;;2.00;;
7013;SDS011;3547;50.774;12.918;2022-07-29T16:32:54;2.38;;;2.17;;
7013;SDS011;3547;50.774;12.918;2022-07-29T16:35:26;2.85;;;2.30;;
7013;SDS011;3547;50.774;12.918;2022-07-29T16:37:56;2.33;;;2.10;;
7013;SDS011;3547;50.774;12.918;2022-07-29T16:40:26;2.47;;;2.28;;
7013;SDS011;3547;50.774;12.918;2022-07-29T16:42:57;2.70;;;2.38;;
7013;SDS011;3547;50.774;12.918;2022-07-29T16:45:29;2.15;;;2.00;;
7013;SDS011;3547;50.774;12.918;2022-07-29T16:47:58;2.72;;;2.53;;
7013;SDS011;3547;50.774;12.918;2022-07-29T16:50:30;3.13;;;2.83;;
7013;SDS011;3547;50.774;12.918;2022-07-29T16:53:26;2.63;;;2.42;;
7013;SDS011;3547;50.774;12.918;2022-07-29T16:55:52;6.25;;;2.30;;
7013;SDS011;3547;50.774;12.918;2022-07-29T16:58:19;2.78;;;2.58;;
7013;SDS011;3547;50.774;12.918;2022-07-29T17:00:46;2.88;;;2.25;;
7013;SDS011;3547;50.774;12.918;2022-07-29T17:03:15;2.63;;;2.42;;
7013;SDS011;3547;50.774;12.918;2022-07-29T17:05:49;2.50;;;2.30;;
7013;SDS011;3547;50.774;12.918;2022-07-29T17:08:21;2.42;;;2.20;;
7013;SDS011;3547;50.774;12.918;2022-07-29T17:10:48;2.78;;;2.42;;
7013;SDS011;3547;50.774;12.918;2022-07-29T17:13:14;2.70;;;2.50;;
7013;SDS011;3547;50.774;12.918;2022-07-29T17:15:42;2.67;;;2.45;;
7013;SDS011;3547;50.774;12.918;2022-07-29T17:18:16;3.63;;;2.58;;
7013;SDS011;3547;50.774;12.918;2022-07-29T17:20:45;4.43;;;2.67;;
7013;SDS011;3547;50.774;12.918;2022-07-29T17:23:12;4.10;;;2.58;;
7013;SDS011;3547;50.774;12.918;2022-07-29T17:25:49;3.97;;;2.55;;
7013;SDS011;3547;50.774;12.918;2022-07-29T17:28:47;2.70;;;2.50;;
7013;SDS011;3547;50.774;12.918;2022-07-29T17:31:18;2.72;;;2.53;;
7013;SDS011;3547;50.774;12.918;2022-07-29T17:38:07;4.53;;;2.50;;
7013;SDS011;3547;50.774;12.918;2022-07-29T17:40:33;2.70;;;2.47;;
7013;SDS011;3547;50.774;12.918;2022-07-29T17:43:00;3.85;;;3.20;;
7013;SDS011;3547;50.774;12.918;2022-07-29T17:45:27;3.67;;;3.05;;
7013;SDS011;3547;50.774;12.918;2022-07-29T17:47:53;3.35;;;2.53;;
7013;SDS011;3547;50.774;12.918;2022-07-29T17:50:19;3.67;;;3.03;;
7013;SDS011;3547;50.774;12.918;2022-07-29T17:52:53;3.72;;;3.08;;
7013;SDS011;3547;50.774;12.918;2022-07-29T17:55:19;3.78;;;2.80;;
7013;SDS011;3547;50.774;12.918;2022-07-29T17:57:46;3.53;;;3.03;;
7013;SDS011;3547;50.774;12.918;2022-07-29T18:00:16;2.85;;;2.65;;
7013;SDS011;3547;50.774;12.918;2022-07-29T18:02:54;4.60;;;3.15;;
7013;SDS011;3547;50.774;12.918;2022-07-29T18:05:21;8.15;;;3.20;;
7013;SDS011;3547;50.774;12.918;2022-07-29T18:07:47;3.55;;;2.78;;
7013;SDS011;3547;50.774;12.918;2022-07-29T18:10:19;4.05;;;2.75;;
7013;SDS011;3547;50.774;12.918;2022-07-29T18:13:09;3.17;;;2.88;;
7013;SDS011;3547;50.774;12.918;2022-07-29T18:15:39;2.97;;;2.65;;
7013;SDS011;3547;50.774;12.918;2022-07-29T18:18:07;4.85;;;3.00;;
7013;SDS011;3547;50.774;12.918;2022-07-29T18:20:37;3.63;;;3.17;;
7013;SDS011;3547;50.774;12.918;2022-07-29T18:23:05;2.88;;;2.55;;
7013;SDS011;3547;50.774;12.918;2022-07-29T18:25:34;2.95;;;2.75;;
7013;SDS011;3547;50.774;12.918;2022-07-29T18:28:03;5.10;;;2.65;;
7013;SDS011;3547;50.774;12.918;2022-07-29T18:30:32;4.00;;;2.85;;
7013;SDS011;3547;50.774;12.918;2022-07-29T18:33:04;3.97;;;2.72;;
7013;SDS011;3547;50.774;12.918;2022-07-29T18:38:26;3.17;;;2.92;;
7013;SDS011;3547;50.774;12.918;2022-07-29T18:40:53;6.50;;;2.70;;
7013;SDS011;3547;50.774;12.918;2022-07-29T18:43:21;5.07;;;3.10;;
7013;SDS011;3547;50.774;12.918;2022-07-29T18:45:47;3.53;;;3.22;;
7013;SDS011;3547;50.774;12.918;2022-07-29T18:48:18;4.15;;;2.58;;
7013;SDS011;3547;50.774;12.918;2022-07-29T18:51:05;4.75;;;3.22;;
7013;SDS011;3547;50.774;12.918;2022-07-29T18:53:33;3.05;;;2.75;;
7013;SDS011;3547;50.774;12.918;2022-07-29T18:56:00;2.65;;;2.45;;
7013;SDS011;3547;50.774;12.918;2022-07-29T18:58:27;2.67;;;2.47;;
7013;SDS011;3547;50.774;12.918;2022-07-29T19:00:57;3.75;;;3.00;;
7013;SDS011;3547;50.774;12.918;2022-07-29T19:03:27;3.53;;;3.13;;
7013;SDS011;3547;50.774;12.918;2022-07-29T19:05:54;3.00;;;2.70;;
7013;SDS011;3547;50.774;12.918;2022-07-29T19:08:41;2.92;;;2.72;;
7013;SDS011;3547;50.774;12.918;2022-07-29T19:11:21;3.58;;;3.10;;
7013;SDS011;3547;50.774;12.918;2022-07-29T19:13:48;3.55;;;2.70;;
7013;SDS011;3547;50.774;12.918;2022-07-29T19:16:14;5.55;;;3.10;;
7013;SDS011;3547;50.774;12.918;2022-07-29T19:18:42;5.03;;;2.60;;
7013;SDS011;3547;50.774;12.918;2022-07-29T19:21:14;5.43;;;2.97;;
7013;SDS011;3547;50.774;12.918;2022-07-29T19:23:49;3.08;;;2.78;;
7013;SDS011;3547;50.774;12.918;2022-07-29T19:29:00;4.22;;;2.70;;
7013;SDS011;3547;50.774;12.918;2022-07-29T19:31:41;2.88;;;2.67;;
7013;SDS011;3547;50.774;12.918;2022-07-29T19:34:07;3.40;;;3.03;;
7013;SDS011;3547;50.774;12.918;2022-07-29T19:39:10;6.47;;;3.25;;
7013;SDS011;3547;50.774;12.918;2022-07-29T19:41:36;4.78;;;3.15;;
7013;SDS011;3547;50.774;12.918;2022-07-29T19:44:11;5.57;;;3.67;;
7013;SDS011;3547;50.774;12.918;2022-07-29T19:46:38;3.47;;;3.17;;
7013;SDS011;3547;50.774;12.918;2022-07-29T19:49:04;5.65;;;3.22;;
7013;SDS011;3547;50.774;12.918;2022-07-29T19:51:31;4.75;;;3.30;;
7013;SDS011;3547;50.774;12.918;2022-07-29T19:53:58;3.92;;;3.33;;
7013;SDS011;3547;50.774;12.918;2022-07-29T19:56:25;4.00;;;3.58;;
7013;SDS011;3547;50.774;12.918;2022-07-29T19:58:54;4.82;;;4.05;;
7013;SDS011;3547;50.774;12.918;2022-07-29T20:01:21;6.28;;;3.70;;
7013;SDS011;3547;50.774;12.918;2022-07-29T20:03:49;4.55;;;3.50;;
7013;SDS011;3547;50.774;12.918;2022-07-29T20:06:16;8.65;;;4.40;;
7013;SDS011;3547;50.774;12.918;2022-07-29T20:08:51;4.38;;;3.70;;
7013;SDS011;3547;50.774;12.918;2022-07-29T20:11:17;3.85;;;3.35;;
7013;SDS011;3547;50.774;12.918;2022-07-29T20:13:44;4.97;;;4.10;;
7013;SDS011;3547;50.774;12.918;2022-07-29T20:16:10;6.38;;;3.78;;
7013;SDS011;3547;50.774;12.918;2022-07-29T20:18:36;6.32;;;4.18;;
7013;SDS011;3547;50.774;12.918;2022-07-29T20:21:03;5.13;;;3.65;;
7013;SDS011;3547;50.774;12.918;2022-07-29T20:23:29;3.92;;;3.53;;
7013;SDS011;3547;50.774;12.918;2022-07-29T20:25:55;4.68;;;3.53;;
7013;SDS011;3547;50.774;12.918;2022-07-29T20:28:21;4.30;;;3.90;;
7013;SDS011;3547;50.774;12.918;2022-07-29T20:30:48;4.85;;;3.70;;
7013;SDS011;3547;50.774;12.918;2022-07-29T20:33:14;4.10;;;3.70;;
7013;SDS011;3547;50.774;12.918;2022-07-29T20:35:40;4.05;;;3.38;;
7013;SDS011;3547;50.774;12.918;2022-07-29T20:38:08;4.03;;;3.33;;
7013;SDS011;3547;50.774;12.918;2022-07-29T20:40:34;5.25;;;3.63;;
7013;SDS011;3547;50.774;12.918;2022-07-29T20:43:00;6.47;;;4.25;;
7013;SDS011;3547;50.774;12.918;2022-07-29T20:45:26;5.15;;;3.90;;
7013;SDS011;3547;50.774;12.918;2022-07-29T20:47:52;4.47;;;4.07;;
7013;SDS011;3547;50.774;12.918;2022-07-29T20:50:19;4.53;;;4.13;;
7013;SDS011;3547;50.774;12.918;2022-07-29T20:52:47;4.15;;;3.75;;
7013;SDS011;3547;50.774;12.918;2022-07-29T20:55:15;4.78;;;4.25;;
7013;SDS011;3547;50.774;12.918;2022-07-29T20:57:41;5.05;;;4.32;;
7013;SDS011;3547;50.774;12.918;2022-07-29T21:00:08;4.97;;;4.47;;
7013;SDS011;3547;50.774;12.918;2022-07-29T21:02:34;6.47;;;5.13;;
7013;SDS011;3547;50.774;12.918;2022-07-29T21:05:01;5.88;;;4.13;;
7013;SDS011;3547;50.774;12.918;2022-07-29T21:07:27;5.40;;;3.83;;
7013;SDS011;3547;50.774;12.918;2022-07-29T21:09:53;6.63;;;4.28;;
7013;SDS011;3547;50.774;12.918;2022-07-29T21:12:19;4.35;;;3.28;;
7013;SDS011;3547;50.774;12.918;2022-07-29T21:14:46;4.30;;;3.90;;
7013;SDS011;3547;50.774;12.918;2022-07-29T21:17:13;3.40;;;3.10;;
7013;SDS011;3547;50.774;12.918;2022-07-29T21:19:40;4.15;;;3.45;;
7013;SDS011;3547;50.774;12.918;2022-07-29T21:22:08;3.60;;;3.30;;
7013;SDS011;3547;50.774;12.918;2022-07-29T21:24:34;5.13;;;3.72;;
7013;SDS011;3547;50.774;12.918;2022-07-29T21:27:01;5.07;;;3.72;;
7013;SDS011;3547;50.774;12.918;2022-07-29T21:29:45;3.72;;;3.40;;
7013;SDS011;3547;50.774;12.918;2022-07-29T21:32:11;4.05;;;3.40;;
7013;SDS011;3547;50.774;12.918;2022-07-29T21:34:38;3.92;;;3.40;;
7013;SDS011;3547;50.774;12.918;2022-07-29T21:37:04;4.10;;;3.70;;
7013;SDS011;3547;50.774;12.918;2022-07-29T21:39:33;3.42;;;3.13;;
7013;SDS011;3547;50.774;12.918;2022-07-29T21:41:59;6.40;;;3.40;;
7013;SDS011;3547;50.774;12.918;2022-07-29T21:44:26;3.60;;;3.25;;
7013;SDS011;3547;50.774;12.918;2022-07-29T21:46:52;3.40;;;3.10;;
7013;SDS011;3547;50.774;12.918;2022-07-29T21:49:21;3.05;;;2.75;;
7013;SDS011;3547;50.774;12.918;2022-07-29T21:52:03;2.80;;;2.60;;
7013;SDS011;3547;50.774;12.918;2022-07-29T21:54:30;3.17;;;2.95;;
7013;SDS011;3547;50.774;12.918;2022-07-29T21:56:56;4.22;;;3.17;;
7013;SDS011;3547;50.774;12.918;2022-07-29T21:59:23;6.72;;;3.63;;
7013;SDS011;3547;50.774;12.918;2022-07-29T22:01:49;3.33;;;3.03;;
7013;SDS011;3547;50.774;12.918;2022-07-29T22:04:15;3.53;;;3.22;;
7013;SDS011;3547;50.774;12.918;2022-07-29T22:06:41;4.35;;;3.45;;
7013;SDS011;3547;50.774;12.918;2022-07-29T22:09:08;4.65;;;3.17;;
7013;SDS011;3547;50.774;12.918;2022-07-29T22:11:34;4.07;;;3.25;;
7013;SDS011;3547;50.774;12.918;2022-07-29T22:14:01;3.92;;;3.53;;
7013;SDS011;3547;50.774;12.918;2022-07-29T22:16:28;3.33;;;3.03;;